Aviation Digital Data Service (ADDS)

Output produced by METARs form (1532 UTC 27 April 2015)
found at http://aviationweather.gov/adds/metars/
 
KIAG 271250Z 2713/2812 33007KT P6SM VCSH OVC025 
     TEMPO 2713/2715 6SM -SHRA BKN015 
     FM271500 33009KT P6SM OVC025 
     FM271700 32010KT P6SM VCSH OVC035 
     FM272300 32006KT P6SM BKN035 
     FM280900 26004KT P6SM BKN050